No particular awareness of the weather is required.    There are no Weather-warnings


Meteo18 Weather Cam more information Meteo18 Weather Cam


Thunder radar more information blitzortung!


Rain radar more information rain snow radar


Visit our other weather sites:

Template documentation
and downloads

And another site



Weather Underground History page Text

Daily Summary for February 12, 2018 Units:  English    Metric   Both
« Previous Day
Next Day »
Daily Weekly Monthly Yearly Custom
  High: Low: Average:
Temperature: TemperatureC °F -2.2 °F 1.4 °F
Dew Point: DewpointC °F -3.3 °F -1.5 °F
Humidity: Humidity % 59 % 82 %
Wind Speed: WindSpeedKMH mph 0.0 mph 2.5 mph
Wind Gust: WindSpeedGustKMH mph - -
Wind:- - West
Pressure: PressurehPa in 1014.8 in -
Precipitation: 0.0 in    
Historical Graphs
 
 
Tabular Data for February 12, 2018
Time Temperature Dew Point Pressure Wind Wind Speed Wind Gust Humidity Rainfall Rate (Hourly)
TemperatureC °F DewpointC °F PressurehPa in Calm     Humidity % HourlyPrecipMM in
00:05 2.4 °F 0.5 °F 1014.8 in WNW 6.4 mph 12.9 mph 87 % 0.0 in
00:11 2.3 °F 0.4 °F 1014.8 in West 11.1 mph 14.5 mph 87 % 0.0 in
00:17 2.3 °F 0.4 °F 1014.8 in West 4.7 mph 11.3 mph 87 % 0.0 in
00:23 2.2 °F 0.4 °F 1015.1 in WNW 7.9 mph 12.9 mph 88 % 0.0 in
00:29 2.1 °F 0.3 °F 1015.1 in WSW 14.3 mph 22.5 mph 88 % 0.0 in
00:35 2.1 °F 0.3 °F 1015.1 in West 19.5 mph 19.5 mph 88 % 0.0 in
00:41 2.1 °F 0.3 °F 1015.1 in WNW 6.4 mph 20.9 mph 88 % 0.0 in
00:47 1.9 °F 0.1 °F 1015.1 in WNW 3.2 mph 11.3 mph 88 % 0.0 in
00:53 1.8 °F 0.0 °F 1015.1 in WNW 3.2 mph 11.3 mph 88 % 0.0 in
00:59 1.8 °F 0.0 °F 1015.5 in WNW 7.9 mph 22.5 mph 88 % 0.0 in
01:05 1.8 °F 0.0 °F 1015.5 in WNW 6.4 mph 11.3 mph 88 % 0.0 in
01:11 1.7 °F -0.1 °F 1015.5 in West 7.9 mph 12.9 mph 88 % 0.0 in
01:17 1.6 °F 0.0 °F 1015.5 in NW 16.3 mph 16.3 mph 89 % 0.0 in
01:23 1.6 °F -0.2 °F 1015.8 in West 7.9 mph 12.9 mph 88 % 0.0 in
01:29 1.5 °F -0.1 °F 1015.8 in WSW 4.7 mph 17.7 mph 89 % 0.0 in
01:35 1.4 °F -0.2 °F 1015.8 in WNW 13.0 mph 13.0 mph 89 % 0.0 in
01:41 1.4 °F -0.2 °F 1015.8 in West 13.0 mph 13.0 mph 89 % 0.0 in
01:47 1.3 °F -0.2 °F 1015.8 in West 11.1 mph 11.3 mph 90 % 0.0 in
01:53 1.3 °F -0.2 °F 1015.8 in West 6.4 mph 14.5 mph 90 % 0.0 in
01:59 1.3 °F -0.2 °F 1015.8 in WNW 1.4 mph 14.5 mph 90 % 0.0 in
02:05 1.2 °F -0.4 °F 1015.8 in WNW 1.4 mph 8.0 mph 89 % 0.0 in
02:12 1.2 °F -0.3 °F 1016.1 in West 3.2 mph 8.0 mph 90 % 0.0 in
02:18 1.1 °F -0.4 °F 1016.1 in WNW 7.9 mph 11.3 mph 90 % 0.0 in
02:24 1.0 °F -0.5 °F 1016.1 in WNW 3.2 mph 8.0 mph 90 % 0.0 in
02:30 1.0 °F -0.5 °F 1016.1 in WNW 1.4 mph 4.8 mph 90 % 0.0 in
02:36 0.9 °F -0.4 °F 1016.1 in WNW 4.7 mph 14.5 mph 91 % 0.0 in
02:42 0.9 °F -0.4 °F 1016.1 in WNW 4.7 mph 9.7 mph 91 % 0.0 in
02:48 0.9 °F -0.4 °F 1016.1 in NW 6.4 mph 9.7 mph 91 % 0.0 in
02:54 0.9 °F -0.4 °F 1016.1 in NW 1.4 mph 11.3 mph 91 % 0.0 in
03:00 0.8 °F -0.5 °F 1016.1 in NW 4.7 mph 8.0 mph 91 % 0.0 in
03:06 0.8 °F -0.5 °F 1016.5 in WNW 7.9 mph 14.5 mph 91 % 0.0 in
03:12 0.8 °F -0.5 °F 1016.5 in WNW 11.1 mph 14.5 mph 91 % 0.0 in
03:18 0.7 °F -0.6 °F 1016.5 in NW 9.7 mph 12.9 mph 91 % 0.0 in
03:24 0.7 °F -0.6 °F 1016.5 in West 9.7 mph 11.3 mph 91 % 0.0 in
03:30 0.6 °F -0.7 °F 1016.5 in WNW 4.7 mph 6.4 mph 91 % 0.0 in
03:36 0.6 °F -0.7 °F 1016.5 in West 1.4 mph 9.7 mph 91 % 0.0 in
03:42 0.6 °F -0.7 °F 1016.5 in WNW 3.2 mph 8.0 mph 91 % 0.0 in
03:48 0.5 °F -0.8 °F 1016.5 in WNW 1.4 mph 6.4 mph 91 % 0.0 in
03:54 0.4 °F -0.9 °F 1016.5 in WNW 1.4 mph 9.7 mph 91 % 0.0 in
04:00 0.4 °F -0.9 °F 1016.5 in NW 1.4 mph 8.0 mph 91 % 0.0 in
04:06 0.3 °F -0.8 °F 1016.5 in WNW 1.4 mph 9.7 mph 92 % 0.0 in
04:12 0.3 °F -0.8 °F 1016.8 in West 1.4 mph 9.7 mph 92 % 0.0 in
04:18 0.3 °F -1.0 °F 1016.5 in WNW 4.7 mph 8.0 mph 91 % 0.0 in
04:24 0.2 °F -0.9 °F 1016.8 in WNW 3.2 mph 6.4 mph 92 % 0.0 in
04:30 0.2 °F -0.9 °F 1016.8 in West 7.9 mph 9.7 mph 92 % 0.0 in
04:36 0.2 °F -0.9 °F 1016.8 in WNW 1.4 mph 9.7 mph 92 % 0.0 in
04:42 0.1 °F -1.0 °F 1016.8 in Calm   8.0 mph 92 % 0.0 in
04:48 0.1 °F -1.0 °F 1016.8 in WNW 3.2 mph 6.4 mph 92 % 0.0 in
04:54 0.0 °F -1.1 °F 1016.8 in Calm   1.6 mph 92 % 0.0 in
05:00 0.0 °F -1.1 °F 1016.8 in WNW 7.9 mph 8.0 mph 92 % 0.0 in
05:06 0.0 °F -1.1 °F 1016.8 in WNW 3.2 mph 3.2 mph 92 % 0.0 in
05:12 -0.1 °F -1.2 °F 1017.2 in West 1.4 mph 6.4 mph 92 % 0.0 in
05:18 -0.1 °F -1.2 °F 1017.2 in WNW 3.2 mph 3.2 mph 92 % 0.0 in
05:24 -0.2 °F -1.3 °F 1017.2 in Calm   4.8 mph 92 % 0.0 in
05:30 -0.2 °F -1.3 °F 1017.5 in WNW 8.0 mph 8.0 mph 92 % 0.0 in
05:36 -0.2 °F -1.3 °F 1017.5 in WNW 3.2 mph 4.8 mph 92 % 0.0 in
05:42 -0.2 °F -1.3 °F 1017.5 in WNW 3.2 mph 4.8 mph 92 % 0.0 in
05:48 -0.2 °F -1.3 °F 1017.5 in WNW 1.4 mph 6.4 mph 92 % 0.0 in
05:54 -0.2 °F -1.3 °F 1017.5 in WNW 6.4 mph 6.4 mph 92 % 0.0 in
06:00 -0.3 °F -1.4 °F 1017.5 in Calm   1.6 mph 92 % 0.0 in
06:06 -0.3 °F -1.4 °F 1017.5 in West 1.4 mph 1.6 mph 92 % 0.0 in
06:12 -0.4 °F -1.5 °F 1017.5 in NW 1.4 mph 6.4 mph 92 % 0.0 in
06:18 -0.4 °F -1.5 °F 1017.8 in Calm     92 % 0.0 in
06:24 -0.4 °F -1.5 °F 1017.8 in Calm     92 % 0.0 in
06:30 -0.5 °F -1.6 °F 1017.8 in Calm   1.6 mph 92 % 0.0 in
06:36 -0.6 °F -1.7 °F 1017.8 in Calm     92 % 0.0 in
06:42 -0.6 °F -1.7 °F 1017.8 in Calm   6.4 mph 92 % 0.0 in
06:48 -0.6 °F -1.7 °F 1017.8 in Calm   1.6 mph 92 % 0.0 in
06:54 -0.6 °F -1.7 °F 1017.8 in WNW 1.4 mph 1.6 mph 92 % 0.0 in
07:00 -0.6 °F -1.7 °F 1018.2 in Calm   1.6 mph 92 % 0.0 in
07:06 -0.6 °F -1.9 °F 1018.2 in Calm     91 % 0.0 in
07:12 -0.7 °F -1.8 °F 1018.2 in Calm     92 % 0.0 in
07:18 -0.8 °F -2.1 °F 1018.2 in Calm     91 % 0.0 in
07:24 -0.8 °F -1.9 °F 1018.5 in WSW 1.4 mph 3.2 mph 92 % 0.0 in
07:30 -0.8 °F -2.1 °F 1018.5 in Calm     91 % 0.0 in
07:36 -0.9 °F -2.0 °F 1018.5 in Calm   1.6 mph 92 % 0.0 in
07:42 -1.0 °F -2.1 °F 1018.8 in Calm     92 % 0.0 in
07:49 -1.1 °F -2.2 °F 1018.8 in Calm     92 % 0.0 in
07:55 -1.0 °F -2.0 °F 1018.8 in Calm   1.6 mph 93 % 0.0 in
08:01 -0.8 °F -1.8 °F 1018.8 in Calm   1.6 mph 93 % 0.0 in
08:07 -0.8 °F -1.9 °F 1018.8 in Calm   1.6 mph 92 % 0.0 in
08:13 -0.8 °F -1.9 °F 1019.2 in Calm   1.6 mph 92 % 0.0 in
08:19 -0.8 °F -1.9 °F 1019.2 in Calm   1.6 mph 92 % 0.0 in
08:25 -0.8 °F -1.9 °F 1019.2 in Calm   1.6 mph 92 % 0.0 in
08:31 -0.8 °F -1.9 °F 1019.2 in West 1.4 mph 1.6 mph 92 % 0.0 in
08:37 -0.9 °F -2.0 °F 1019.5 in Calm   1.6 mph 92 % 0.0 in
08:43 -0.9 °F -2.0 °F 1019.5 in Calm   1.6 mph 92 % 0.0 in
08:49 -0.7 °F -1.7 °F 1019.5 in Calm   1.6 mph 93 % 0.0 in
08:55 -0.6 °F -1.7 °F 1019.5 in Calm   1.6 mph 92 % 0.0 in
09:01 -0.4 °F -1.5 °F 1019.5 in West 1.4 mph 1.6 mph 92 % 0.0 in
09:07 -0.2 °F -1.5 °F 1019.5 in Calm   1.6 mph 91 % 0.0 in
09:13 -0.1 °F -1.4 °F 1019.5 in West 1.4 mph 3.2 mph 91 % 0.0 in
09:19 0.2 °F -1.2 °F 1019.9 in Calm   1.6 mph 90 % 0.0 in
09:25 0.3 °F -1.1 °F 1019.9 in Calm   4.8 mph 90 % 0.0 in
09:31 0.5 °F -1.1 °F 1019.9 in NW 1.4 mph 4.8 mph 89 % 0.0 in
09:37 0.6 °F -1.0 °F 1019.9 in WSW 4.7 mph 4.8 mph 89 % 0.0 in
09:43 0.7 °F -1.1 °F 1019.9 in Calm   6.4 mph 88 % 0.0 in
09:49 0.9 °F -0.9 °F 1020.2 in WNW 4.7 mph 4.8 mph 88 % 0.0 in
09:55 1.1 °F -0.8 °F 1020.2 in WNW 1.4 mph 8.0 mph 87 % 0.0 in
10:01 1.2 °F -0.9 °F 1020.2 in WNW 4.7 mph 9.7 mph 86 % 0.0 in
10:07 1.4 °F -0.7 °F 1020.2 in WNW 6.4 mph 6.4 mph 86 % 0.0 in
10:13 1.5 °F -0.6 °F 1020.2 in WNW 4.7 mph 6.4 mph 86 % 0.0 in
10:19 1.7 °F -0.6 °F 1020.2 in WNW 3.2 mph 4.8 mph 85 % 0.0 in
10:25 1.8 °F -0.6 °F 1020.2 in NW 9.7 mph 9.7 mph 84 % 0.0 in
10:32 2.0 °F -0.6 °F 1020.2 in WNW 3.2 mph 8.0 mph 83 % 0.0 in
10:38 2.1 °F -0.7 °F 1020.5 in WNW 7.9 mph 11.3 mph 82 % 0.0 in
10:44 2.2 °F -0.4 °F 1020.5 in NNW 3.2 mph 8.0 mph 83 % 0.0 in
10:50 2.4 °F -0.4 °F 1020.5 in NW 1.4 mph 8.0 mph 82 % 0.0 in
10:56 2.5 °F -0.3 °F 1020.5 in WNW 3.2 mph 9.7 mph 82 % 0.0 in
11:02 2.7 °F -0.2 °F 1020.5 in NW 4.7 mph 8.0 mph 81 % 0.0 in
11:08 2.8 °F -0.1 °F 1020.5 in WNW 9.7 mph 14.5 mph 81 % 0.0 in
11:14 2.9 °F -0.2 °F 1020.5 in NW 6.4 mph 11.3 mph 80 % 0.0 in
11:20 2.9 °F -0.4 °F 1020.5 in WNW 3.2 mph 9.7 mph 79 % 0.0 in
11:26 3.1 °F -0.2 °F 1020.5 in NW 6.4 mph 8.0 mph 79 % 0.0 in
11:32 3.3 °F 0.0 °F 1020.5 in WNW 4.7 mph 8.0 mph 79 % 0.0 in
11:38 3.4 °F 0.1 °F 1020.5 in NW 4.7 mph 9.7 mph 79 % 0.0 in
11:44 3.6 °F 0.1 °F 1020.9 in Calm   9.7 mph 78 % 0.0 in
11:50 3.6 °F -0.1 °F 1020.9 in WNW 3.2 mph 6.4 mph 77 % 0.0 in
11:56 3.8 °F 0.3 °F 1020.9 in Calm   4.8 mph 78 % 0.0 in
12:02 3.8 °F 0.0 °F 1020.9 in WNW 3.2 mph 6.4 mph 76 % 0.0 in
12:08 3.8 °F -0.2 °F 1020.9 in West 3.2 mph 6.4 mph 75 % 0.0 in
12:14 3.8 °F 0.0 °F 1020.9 in NW 3.2 mph 8.0 mph 76 % 0.0 in
12:20 4.1 °F -0.3 °F 1020.5 in NNE 6.4 mph 8.0 mph 73 % 0.0 in
12:26 4.2 °F -0.2 °F 1020.5 in WNW 6.4 mph 8.0 mph 73 % 0.0 in
12:32 4.3 °F 0.1 °F 1020.5 in WNW 3.2 mph 4.8 mph 74 % 0.0 in
12:38 4.4 °F -1.0 °F 1020.5 in WNW 7.9 mph 11.3 mph 68 % 0.0 in
12:44 4.3 °F -0.9 °F 1020.5 in North 6.4 mph 6.4 mph 69 % 0.0 in
12:50 4.3 °F -0.9 °F 1020.5 in WNW 1.4 mph 4.8 mph 69 % 0.0 in
12:56 4.6 °F -0.6 °F 1020.5 in NNE 4.7 mph 11.3 mph 69 % 0.0 in
13:02 4.3 °F -2.3 °F 1020.5 in WNW 6.4 mph 11.3 mph 62 % 0.0 in
13:08 4.2 °F -1.6 °F 1020.5 in Calm   8.0 mph 66 % 0.0 in
13:14 4.6 °F -1.6 °F 1020.5 in WNW 3.2 mph 6.4 mph 64 % 0.0 in
13:20 4.6 °F -1.6 °F 1020.5 in WNW 7.9 mph 8.0 mph 64 % 0.0 in
13:26 4.3 °F -1.3 °F 1020.5 in Calm   6.4 mph 67 % 0.0 in
13:32 4.3 °F -1.5 °F 1020.5 in NNW 3.2 mph 4.8 mph 66 % 0.0 in
13:38 4.6 °F -1.0 °F 1020.5 in NNW 4.7 mph 4.8 mph 67 % 0.0 in
13:44 4.4 °F -1.8 °F 1020.5 in West 1.4 mph 11.3 mph 64 % 0.0 in
13:50 4.3 °F -1.7 °F 1020.5 in NNW 9.7 mph 9.7 mph 65 % 0.0 in
13:56 4.2 °F -2.2 °F 1020.2 in WNW 3.2 mph 14.5 mph 63 % 0.0 in
14:02 4.2 °F -1.8 °F 1020.2 in WNW 11.1 mph 11.3 mph 65 % 0.0 in
14:08 4.4 °F -1.6 °F 1020.2 in NW 6.4 mph 6.4 mph 65 % 0.0 in
14:14 4.4 °F -1.8 °F 1020.2 in NNW 1.4 mph 3.2 mph 64 % 0.0 in
14:20 4.3 °F -1.9 °F 1020.2 in NE 3.2 mph 8.0 mph 64 % 0.0 in
14:26 4.4 °F -2.0 °F 1019.9 in West 4.7 mph 6.4 mph 63 % 0.0 in
14:32 4.4 °F -2.0 °F 1019.9 in West 1.4 mph 8.0 mph 63 % 0.0 in
14:38 4.6 °F -1.4 °F 1019.9 in North 3.2 mph 4.8 mph 65 % 0.0 in
14:44 4.9 °F -1.3 °F 1019.9 in WNW 3.2 mph 6.4 mph 64 % 0.0 in
14:50 4.8 °F -1.9 °F 1019.9 in Calm   4.8 mph 62 % 0.0 in
14:56 4.7 °F -1.5 °F 1019.9 in WNW 1.4 mph 6.4 mph 64 % 0.0 in
15:02 4.5 °F -2.4 °F 1019.9 in NNW 3.2 mph 8.0 mph 61 % 0.0 in
15:08 4.6 °F -2.3 °F 1019.9 in Calm   3.2 mph 61 % 0.0 in
15:14 4.7 °F -2.2 °F 1019.9 in ENE 1.4 mph 4.8 mph 61 % 0.0 in
15:20 4.7 °F -2.2 °F 1019.9 in Calm   4.8 mph 61 % 0.0 in
15:26 5.0 °F -1.5 °F 1019.9 in Calm   3.2 mph 63 % 0.0 in
15:32 5.2 °F -1.7 °F 1019.9 in North 7.9 mph 8.0 mph 61 % 0.0 in
15:38 4.8 °F -1.4 °F 1019.9 in NNW 4.7 mph 9.7 mph 64 % 0.0 in
15:44 4.8 °F -1.4 °F 1019.9 in North 4.7 mph 6.4 mph 64 % 0.0 in
15:50 4.8 °F -1.6 °F 1019.9 in NNE 3.2 mph 6.4 mph 63 % 0.0 in
15:56 4.7 °F -1.3 °F 1019.9 in NNW 3.2 mph 4.8 mph 65 % 0.0 in
16:02 4.5 °F -1.3 °F 1019.9 in Calm   1.6 mph 66 % 0.0 in
16:08 4.6 °F -1.2 °F 1019.9 in NNW 3.2 mph 3.2 mph 66 % 0.0 in
16:14 4.9 °F -1.3 °F 1019.9 in WNW 1.4 mph 8.0 mph 64 % 0.0 in
16:20 5.1 °F -1.6 °F 1019.5 in NW 4.7 mph 6.4 mph 62 % 0.0 in
16:26 5.1 °F -2.3 °F 1019.5 in WNW 3.2 mph 6.4 mph 59 % 0.0 in
16:32 5.2 °F -2.2 °F 1019.5 in WNW 1.4 mph 4.8 mph 59 % 0.0 in
16:38 4.8 °F -1.6 °F 1019.5 in WNW 1.4 mph 4.8 mph 63 % 0.0 in
16:44 4.7 °F -2.0 °F 1019.5 in Calm   1.6 mph 62 % 0.0 in
16:50 4.5 °F -1.7 °F 1019.5 in WNW 1.4 mph 3.2 mph 64 % 0.0 in
16:56 4.6 °F -1.6 °F 1019.5 in Calm   1.6 mph 64 % 0.0 in
17:02 4.6 °F -1.8 °F 1019.5 in Calm   1.6 mph 63 % 0.0 in
17:08 4.4 °F -2.0 °F 1019.5 in Calm   1.6 mph 63 % 0.0 in
17:14 4.4 °F -2.0 °F 1019.5 in Calm   1.6 mph 63 % 0.0 in
17:20 4.3 °F -1.5 °F 1019.5 in Calm     66 % 0.0 in
17:27 4.0 °F -1.8 °F 1019.5 in Calm     66 % 0.0 in
17:33 3.8 °F -2.4 °F 1019.5 in Calm   1.6 mph 64 % 0.0 in
17:39 3.7 °F -2.5 °F 1019.5 in Calm   1.6 mph 64 % 0.0 in
17:45 3.4 °F -2.1 °F 1019.5 in Calm     67 % 0.0 in
17:51 3.3 °F -2.4 °F 1019.5 in Calm     66 % 0.0 in
17:57 3.1 °F -1.8 °F 1019.5 in Calm     70 % 0.0 in
18:03 2.8 °F -2.5 °F 1019.5 in Calm     68 % 0.0 in
18:09 2.8 °F -2.7 °F 1019.5 in Calm     67 % 0.0 in
18:15 2.9 °F -2.8 °F 1019.9 in Calm     66 % 0.0 in
18:21 2.7 °F -2.8 °F 1019.9 in Calm     67 % 0.0 in
18:27 2.4 °F -2.7 °F 1019.9 in Calm     69 % 0.0 in
18:33 2.1 °F -2.6 °F 1019.9 in Calm     71 % 0.0 in
18:39 1.7 °F -2.8 °F 1019.9 in Calm     72 % 0.0 in
18:45 1.4 °F -2.7 °F 1019.9 in SW 1.4 mph 1.6 mph 74 % 0.0 in
18:51 1.2 °F -2.7 °F 1019.9 in WNW 1.4 mph 3.2 mph 75 % 0.0 in
18:57 1.2 °F -2.6 °F 1019.9 in WNW 1.4 mph 3.2 mph 76 % 0.0 in
19:03 1.3 °F -2.5 °F 1019.9 in Calm   1.6 mph 76 % 0.0 in
19:09 0.9 °F -2.7 °F 1019.9 in Calm   1.6 mph 77 % 0.0 in
19:15 0.8 °F -2.6 °F 1019.9 in Calm   1.6 mph 78 % 0.0 in
19:21 1.0 °F -2.4 °F 1019.9 in Calm     78 % 0.0 in
19:28 0.9 °F -2.5 °F 1019.9 in Calm     78 % 0.0 in
19:34 0.7 °F -2.5 °F 1019.9 in Calm     79 % 0.0 in
19:40 0.8 °F -2.3 °F 1019.9 in Calm   1.6 mph 80 % 0.0 in
19:46 0.9 °F -2.2 °F 1020.2 in Calm     80 % 0.0 in
19:52 0.7 °F -2.5 °F 1019.9 in Calm     79 % 0.0 in
19:58 0.4 °F -2.6 °F 1019.9 in Calm     80 % 0.0 in
20:04 0.5 °F -2.4 °F 1019.9 in Calm     81 % 0.0 in
20:10 0.6 °F -2.3 °F 1019.9 in Calm     81 % 0.0 in
20:16 0.4 °F -2.5 °F 1019.9 in Calm     81 % 0.0 in
20:22 0.3 °F -2.4 °F 1019.9 in Calm     82 % 0.0 in
20:28 0.2 °F -2.5 °F 1019.9 in Calm     82 % 0.0 in
20:34 -0.2 °F -2.6 °F 1019.9 in Calm     84 % 0.0 in
20:40 -0.5 °F -2.6 °F 1019.9 in Calm     86 % 0.0 in
20:46 -0.7 °F -2.7 °F 1019.9 in Calm     86 % 0.0 in
20:52 -1.0 °F -3.0 °F 1019.9 in Calm     86 % 0.0 in
20:58 -1.3 °F -3.0 °F 1019.9 in Calm     88 % 0.0 in
21:04 -1.3 °F -2.9 °F 1019.9 in Calm     89 % 0.0 in
21:10 -1.4 °F -3.0 °F 1019.9 in Calm     89 % 0.0 in
21:16 -1.6 °F -3.0 °F 1019.9 in Calm     90 % 0.0 in
21:22 -1.6 °F -3.0 °F 1019.9 in Calm     90 % 0.0 in
21:28 -1.6 °F -2.9 °F 1019.9 in Calm     91 % 0.0 in
21:34 -1.6 °F -2.9 °F 1019.9 in Calm     91 % 0.0 in
21:40 -1.5 °F -2.8 °F 1019.9 in Calm     91 % 0.0 in
21:46 -1.3 °F -2.6 °F 1019.9 in Calm     91 % 0.0 in
21:52 -1.3 °F -2.6 °F 1019.9 in Calm     91 % 0.0 in
21:59 -1.3 °F -2.6 °F 1019.9 in Calm     91 % 0.0 in
22:05 -1.3 °F -2.6 °F 1019.9 in Calm     91 % 0.0 in
22:11 -1.4 °F -2.7 °F 1019.9 in Calm     91 % 0.0 in
22:17 -1.4 °F -2.7 °F 1019.9 in Calm     91 % 0.0 in
22:23 -1.6 °F -2.9 °F 1019.9 in Calm     91 % 0.0 in
22:29 -1.4 °F -2.7 °F 1019.9 in Calm     91 % 0.0 in
22:35 -1.4 °F -2.8 °F 1019.5 in Calm     90 % 0.0 in
22:41 -1.6 °F -2.9 °F 1019.5 in Calm     91 % 0.0 in
22:47 -1.8 °F -3.1 °F 1019.5 in Calm     91 % 0.0 in
22:53 -1.8 °F -2.9 °F 1019.5 in Calm     92 % 0.0 in
22:59 -1.9 °F -3.0 °F 1019.5 in Calm     92 % 0.0 in
23:05 -2.0 °F -3.1 °F 1019.5 in Calm     92 % 0.0 in
23:11 -2.1 °F -3.2 °F 1019.5 in Calm     92 % 0.0 in
23:17 -2.0 °F -3.1 °F 1019.5 in Calm   1.6 mph 92 % 0.0 in
23:23 -2.0 °F -3.1 °F 1019.5 in Calm     92 % 0.0 in
23:29 -2.0 °F -3.1 °F 1019.5 in Calm     92 % 0.0 in
23:35 -2.0 °F -3.1 °F 1019.2 in Calm     92 % 0.0 in
23:41 -2.1 °F -3.2 °F 1019.2 in Calm     92 % 0.0 in
23:47 -2.1 °F -3.2 °F 1019.2 in Calm     92 % 0.0 in
23:53 -2.1 °F -3.2 °F 1019.2 in Calm     92 % 0.0 in
23:59 -2.2 °F -3.3 °F 1019.2 in Calm     92 % 0.0 in
Meteo18
Compliments of Weather Underground - 4 mb

Script developed by  Jim McMurry - jmcmurry@mwt.net Adapted for the template by  Wim van der Kuil - Leuven-Template.eu

You find our weather info also at:

European Weather Network

Weather Underground

Equipment we use:

Weather-station
Davis Vue

Weather-program
Meteobridge

Weather-server
Raspberry PI 2 B+

Provider
1 and 1

Davis Vue

Meteobridge

Raspberry PI 2 B+

1 and 1